sensor_id;sensor_type;location;lat;lon;timestamp;P1;durP1;ratioP1;P2;durP2;ratioP2
47856;SDS011;33618;49.972;8.242;2023-03-20T00:50:58;7.78;;;6.25;;
47856;SDS011;33618;49.972;8.242;2023-03-20T00:53:25;9.02;;;5.90;;
47856;SDS011;33618;49.972;8.242;2023-03-20T00:55:52;6.90;;;6.20;;
47856;SDS011;33618;49.972;8.242;2023-03-20T00:58:18;7.28;;;6.30;;
47856;SDS011;33618;49.972;8.242;2023-03-20T01:00:45;6.35;;;5.75;;
47856;SDS011;33618;49.972;8.242;2023-03-20T01:03:14;6.45;;;5.82;;
47856;SDS011;33618;49.972;8.242;2023-03-20T01:05:45;6.63;;;6.00;;
47856;SDS011;33618;49.972;8.242;2023-03-20T01:08:17;6.70;;;5.97;;
47856;SDS011;33618;49.972;8.242;2023-03-20T01:10:47;8.13;;;5.85;;
47856;SDS011;33618;49.972;8.242;2023-03-20T01:13:22;9.05;;;6.32;;
47856;SDS011;33618;49.972;8.242;2023-03-20T01:15:51;7.05;;;6.00;;
47856;SDS011;33618;49.972;8.242;2023-03-20T01:18:20;6.55;;;5.53;;
47856;SDS011;33618;49.972;8.242;2023-03-20T01:20:48;6.50;;;5.88;;
47856;SDS011;33618;49.972;8.242;2023-03-20T01:30:51;6.70;;;6.00;;
47856;SDS011;33618;49.972;8.242;2023-03-20T01:33:35;7.15;;;6.03;;
47856;SDS011;33618;49.972;8.242;2023-03-20T01:36:03;6.80;;;6.20;;
47856;SDS011;33618;49.972;8.242;2023-03-20T01:38:31;7.05;;;5.90;;
47856;SDS011;33618;49.972;8.242;2023-03-20T01:41:13;7.95;;;5.63;;
47856;SDS011;33618;49.972;8.242;2023-03-20T01:43:43;7.45;;;6.15;;
47856;SDS011;33618;49.972;8.242;2023-03-20T01:51:25;7.47;;;5.88;;
47856;SDS011;33618;49.972;8.242;2023-03-20T01:54:03;9.90;;;6.25;;
47856;SDS011;33618;49.972;8.242;2023-03-20T01:57:17;8.32;;;6.05;;
47856;SDS011;33618;49.972;8.242;2023-03-20T01:59:31;9.38;;;5.93;;
47856;SDS011;33618;49.972;8.242;2023-03-20T02:02:05;8.55;;;6.00;;
47856;SDS011;33618;49.972;8.242;2023-03-20T02:04:33;6.75;;;6.07;;
47856;SDS011;33618;49.972;8.242;2023-03-20T02:07:05;7.18;;;5.80;;
47856;SDS011;33618;49.972;8.242;2023-03-20T02:09:34;7.00;;;6.07;;
47856;SDS011;33618;49.972;8.242;2023-03-20T02:12:01;7.35;;;6.18;;
47856;SDS011;33618;49.972;8.242;2023-03-20T02:14:40;6.78;;;6.18;;
47856;SDS011;33618;49.972;8.242;2023-03-20T02:17:08;6.90;;;6.20;;
47856;SDS011;33618;49.972;8.242;2023-03-20T02:37:18;7.55;;;6.43;;
47856;SDS011;33618;49.972;8.242;2023-03-20T02:42:52;8.05;;;7.00;;
47856;SDS011;33618;49.972;8.242;2023-03-20T02:45:28;8.98;;;7.28;;
47856;SDS011;33618;49.972;8.242;2023-03-20T02:48:07;9.85;;;7.25;;
47856;SDS011;33618;49.972;8.242;2023-03-20T02:50:47;9.82;;;7.40;;
47856;SDS011;33618;49.972;8.242;2023-03-20T02:56:25;8.35;;;7.25;;
47856;SDS011;33618;49.972;8.242;2023-03-20T03:01:37;9.65;;;7.13;;
47856;SDS011;33618;49.972;8.242;2023-03-20T03:04:15;8.50;;;7.30;;
47856;SDS011;33618;49.972;8.242;2023-03-20T03:06:49;9.32;;;7.38;;
47856;SDS011;33618;49.972;8.242;2023-03-20T03:09:22;8.60;;;7.60;;
47856;SDS011;33618;49.972;8.242;2023-03-20T03:12:09;8.35;;;7.13;;
47856;SDS011;33618;49.972;8.242;2023-03-20T03:14:50;9.32;;;7.18;;
47856;SDS011;33618;49.972;8.242;2023-03-20T03:17:22;9.73;;;7.38;;
47856;SDS011;33618;49.972;8.242;2023-03-20T03:19:52;8.70;;;7.22;;
47856;SDS011;33618;49.972;8.242;2023-03-20T03:22:27;9.20;;;7.72;;
47856;SDS011;33618;49.972;8.242;2023-03-20T03:24:55;10.13;;;7.75;;
47856;SDS011;33618;49.972;8.242;2023-03-20T03:27:27;9.10;;;7.60;;
47856;SDS011;33618;49.972;8.242;2023-03-20T03:30:23;9.65;;;7.63;;
47856;SDS011;33618;49.972;8.242;2023-03-20T03:35:44;9.90;;;7.60;;
47856;SDS011;33618;49.972;8.242;2023-03-20T03:40:45;11.05;;;8.05;;
47856;SDS011;33618;49.972;8.242;2023-03-20T03:43:28;11.60;;;8.43;;
47856;SDS011;33618;49.972;8.242;2023-03-20T03:46:05;10.25;;;7.82;;
47856;SDS011;33618;49.972;8.242;2023-03-20T03:48:39;11.10;;;8.35;;
47856;SDS011;33618;49.972;8.242;2023-03-20T03:51:13;11.00;;;7.97;;
47856;SDS011;33618;49.972;8.242;2023-03-20T03:53:51;10.20;;;8.00;;
47856;SDS011;33618;49.972;8.242;2023-03-20T03:56:23;14.63;;;8.77;;
47856;SDS011;33618;49.972;8.242;2023-03-20T03:58:54;12.02;;;9.13;;
47856;SDS011;33618;49.972;8.242;2023-03-20T04:01:26;13.43;;;9.18;;
47856;SDS011;33618;49.972;8.242;2023-03-20T04:03:56;14.95;;;9.65;;
47856;SDS011;33618;49.972;8.242;2023-03-20T04:08:58;18.98;;;10.10;;
47856;SDS011;33618;49.972;8.242;2023-03-20T04:11:26;20.92;;;10.52;;
47856;SDS011;33618;49.972;8.242;2023-03-20T04:13:54;26.65;;;12.18;;
47856;SDS011;33618;49.972;8.242;2023-03-20T04:16:22;20.45;;;11.93;;
47856;SDS011;33618;49.972;8.242;2023-03-20T04:18:49;20.98;;;12.40;;
47856;SDS011;33618;49.972;8.242;2023-03-20T04:21:17;22.65;;;12.85;;
47856;SDS011;33618;49.972;8.242;2023-03-20T04:23:44;26.38;;;13.90;;
47856;SDS011;33618;49.972;8.242;2023-03-20T04:26:12;29.85;;;14.98;;
47856;SDS011;33618;49.972;8.242;2023-03-20T04:28:39;27.17;;;14.02;;
47856;SDS011;33618;49.972;8.242;2023-03-20T04:31:06;31.92;;;14.90;;
47856;SDS011;33618;49.972;8.242;2023-03-20T04:33:33;32.70;;;16.67;;
47856;SDS011;33618;49.972;8.242;2023-03-20T04:36:00;36.55;;;16.67;;
47856;SDS011;33618;49.972;8.242;2023-03-20T04:38:27;39.90;;;18.65;;
47856;SDS011;33618;49.972;8.242;2023-03-20T04:40:54;37.17;;;17.98;;
47856;SDS011;33618;49.972;8.242;2023-03-20T04:43:21;36.60;;;18.42;;
47856;SDS011;33618;49.972;8.242;2023-03-20T04:45:48;39.22;;;18.05;;
47856;SDS011;33618;49.972;8.242;2023-03-20T04:48:15;38.72;;;18.30;;
47856;SDS011;33618;49.972;8.242;2023-03-20T04:50:42;44.55;;;20.25;;
47856;SDS011;33618;49.972;8.242;2023-03-20T04:53:12;41.25;;;20.05;;
47856;SDS011;33618;49.972;8.242;2023-03-20T04:55:39;42.47;;;19.67;;
47856;SDS011;33618;49.972;8.242;2023-03-20T04:58:06;42.38;;;19.90;;
47856;SDS011;33618;49.972;8.242;2023-03-20T05:00:33;45.53;;;20.58;;
47856;SDS011;33618;49.972;8.242;2023-03-20T05:03:00;43.67;;;20.48;;
47856;SDS011;33618;49.972;8.242;2023-03-20T05:05:28;46.58;;;20.80;;
47856;SDS011;33618;49.972;8.242;2023-03-20T05:07:55;48.28;;;20.27;;
47856;SDS011;33618;49.972;8.242;2023-03-20T05:10:22;45.05;;;20.02;;
47856;SDS011;33618;49.972;8.242;2023-03-20T05:12:48;44.33;;;19.90;;
47856;SDS011;33618;49.972;8.242;2023-03-20T05:15:15;45.03;;;21.00;;
47856;SDS011;33618;49.972;8.242;2023-03-20T05:17:43;39.88;;;19.60;;
47856;SDS011;33618;49.972;8.242;2023-03-20T05:20:10;41.22;;;19.90;;
47856;SDS011;33618;49.972;8.242;2023-03-20T05:22:37;47.13;;;19.88;;
47856;SDS011;33618;49.972;8.242;2023-03-20T05:25:04;41.83;;;19.95;;
47856;SDS011;33618;49.972;8.242;2023-03-20T05:27:31;43.28;;;20.33;;
47856;SDS011;33618;49.972;8.242;2023-03-20T05:29:58;39.60;;;19.70;;
47856;SDS011;33618;49.972;8.242;2023-03-20T05:32:25;45.35;;;20.23;;
47856;SDS011;33618;49.972;8.242;2023-03-20T05:34:52;40.55;;;19.17;;
47856;SDS011;33618;49.972;8.242;2023-03-20T05:37:19;41.92;;;19.77;;
47856;SDS011;33618;49.972;8.242;2023-03-20T05:39:46;41.38;;;19.02;;
47856;SDS011;33618;49.972;8.242;2023-03-20T05:42:12;34.67;;;18.42;;
47856;SDS011;33618;49.972;8.242;2023-03-20T05:44:39;36.60;;;18.48;;
47856;SDS011;33618;49.972;8.242;2023-03-20T05:47:06;38.10;;;17.90;;
47856;SDS011;33618;49.972;8.242;2023-03-20T05:49:33;37.88;;;18.17;;
47856;SDS011;33618;49.972;8.242;2023-03-20T05:52:00;36.17;;;17.60;;
47856;SDS011;33618;49.972;8.242;2023-03-20T05:54:27;36.63;;;17.50;;
47856;SDS011;33618;49.972;8.242;2023-03-20T05:56:53;32.88;;;17.17;;
47856;SDS011;33618;49.972;8.242;2023-03-20T05:59:24;35.22;;;17.70;;
47856;SDS011;33618;49.972;8.242;2023-03-20T06:01:51;39.78;;;17.98;;
47856;SDS011;33618;49.972;8.242;2023-03-20T06:04:18;37.58;;;17.42;;
47856;SDS011;33618;49.972;8.242;2023-03-20T06:06:44;38.67;;;18.15;;
47856;SDS011;33618;49.972;8.242;2023-03-20T06:09:11;43.88;;;18.52;;
47856;SDS011;33618;49.972;8.242;2023-03-20T06:11:38;45.63;;;18.20;;
47856;SDS011;33618;49.972;8.242;2023-03-20T06:14:05;42.90;;;18.13;;
47856;SDS011;33618;49.972;8.242;2023-03-20T06:16:32;39.72;;;18.02;;
47856;SDS011;33618;49.972;8.242;2023-03-20T06:18:59;39.88;;;18.30;;
47856;SDS011;33618;49.972;8.242;2023-03-20T06:21:26;41.25;;;17.63;;
47856;SDS011;33618;49.972;8.242;2023-03-20T06:23:53;40.95;;;18.83;;
47856;SDS011;33618;49.972;8.242;2023-03-20T06:26:20;42.42;;;18.20;;
47856;SDS011;33618;49.972;8.242;2023-03-20T06:28:47;40.67;;;17.77;;
47856;SDS011;33618;49.972;8.242;2023-03-20T16:01:25;3.45;;;2.20;;
47856;SDS011;33618;49.972;8.242;2023-03-20T16:03:57;2.47;;;2.20;;
47856;SDS011;33618;49.972;8.242;2023-03-20T16:06:26;2.45;;;1.90;;
47856;SDS011;33618;49.972;8.242;2023-03-20T16:08:55;1.90;;;1.80;;
47856;SDS011;33618;49.972;8.242;2023-03-20T16:11:37;2.20;;;1.77;;
47856;SDS011;33618;49.972;8.242;2023-03-20T16:14:08;2.47;;;1.70;;
47856;SDS011;33618;49.972;8.242;2023-03-20T16:16:57;1.98;;;1.80;;
47856;SDS011;33618;49.972;8.242;2023-03-20T16:19:26;3.35;;;1.90;;
47856;SDS011;33618;49.972;8.242;2023-03-20T16:21:56;2.67;;;1.92;;
47856;SDS011;33618;49.972;8.242;2023-03-20T16:24:27;2.88;;;1.80;;
47856;SDS011;33618;49.972;8.242;2023-03-20T16:26:56;2.13;;;1.40;;
47856;SDS011;33618;49.972;8.242;2023-03-20T16:29:24;4.15;;;1.73;;
47856;SDS011;33618;49.972;8.242;2023-03-20T16:32:01;5.20;;;1.60;;
47856;SDS011;33618;49.972;8.242;2023-03-20T16:34:37;3.83;;;1.80;;
47856;SDS011;33618;49.972;8.242;2023-03-20T16:37:06;2.88;;;1.92;;
47856;SDS011;33618;49.972;8.242;2023-03-20T16:42:36;2.35;;;1.52;;
47856;SDS011;33618;49.972;8.242;2023-03-20T16:45:04;2.33;;;1.52;;
47856;SDS011;33618;49.972;8.242;2023-03-20T16:47:39;1.83;;;1.50;;
47856;SDS011;33618;49.972;8.242;2023-03-20T16:50:15;4.05;;;1.65;;
47856;SDS011;33618;49.972;8.242;2023-03-20T16:52:45;2.10;;;1.60;;
47856;SDS011;33618;49.972;8.242;2023-03-20T16:55:28;2.08;;;1.83;;
47856;SDS011;33618;49.972;8.242;2023-03-20T16:57:58;2.03;;;1.60;;
47856;SDS011;33618;49.972;8.242;2023-03-20T17:00:29;1.63;;;1.35;;
47856;SDS011;33618;49.972;8.242;2023-03-20T17:03:13;2.25;;;1.83;;
47856;SDS011;33618;49.972;8.242;2023-03-20T17:05:44;1.92;;;1.70;;
47856;SDS011;33618;49.972;8.242;2023-03-20T17:08:15;2.88;;;1.80;;
47856;SDS011;33618;49.972;8.242;2023-03-20T17:10:49;3.30;;;2.00;;
47856;SDS011;33618;49.972;8.242;2023-03-20T17:13:20;3.85;;;2.00;;
47856;SDS011;33618;49.972;8.242;2023-03-20T17:15:47;3.15;;;1.70;;
47856;SDS011;33618;49.972;8.242;2023-03-20T17:18:14;3.50;;;1.75;;
47856;SDS011;33618;49.972;8.242;2023-03-20T17:20:41;5.13;;;2.08;;
47856;SDS011;33618;49.972;8.242;2023-03-20T17:23:11;3.80;;;1.83;;
47856;SDS011;33618;49.972;8.242;2023-03-20T17:25:41;2.88;;;2.05;;
47856;SDS011;33618;49.972;8.242;2023-03-20T17:28:10;2.72;;;2.10;;
47856;SDS011;33618;49.972;8.242;2023-03-20T17:30:49;2.55;;;1.95;;
47856;SDS011;33618;49.972;8.242;2023-03-20T17:33:17;3.17;;;1.83;;
47856;SDS011;33618;49.972;8.242;2023-03-20T17:35:46;4.72;;;2.17;;
47856;SDS011;33618;49.972;8.242;2023-03-20T17:38:15;3.88;;;2.13;;
47856;SDS011;33618;49.972;8.242;2023-03-20T17:40:47;5.53;;;2.03;;
47856;SDS011;33618;49.972;8.242;2023-03-20T17:43:16;4.53;;;2.40;;
47856;SDS011;33618;49.972;8.242;2023-03-20T17:45:43;4.43;;;2.30;;
47856;SDS011;33618;49.972;8.242;2023-03-20T17:48:16;5.82;;;2.83;;
47856;SDS011;33618;49.972;8.242;2023-03-20T17:50:49;3.58;;;2.22;;
47856;SDS011;33618;49.972;8.242;2023-03-20T17:53:17;3.35;;;2.50;;
47856;SDS011;33618;49.972;8.242;2023-03-20T17:55:46;8.75;;;2.20;;
47856;SDS011;33618;49.972;8.242;2023-03-20T17:58:13;3.03;;;1.88;;
47856;SDS011;33618;49.972;8.242;2023-03-20T18:00:42;3.80;;;2.22;;
47856;SDS011;33618;49.972;8.242;2023-03-20T18:03:09;2.95;;;1.88;;
47856;SDS011;33618;49.972;8.242;2023-03-20T18:05:36;3.75;;;2.35;;
47856;SDS011;33618;49.972;8.242;2023-03-20T18:08:05;4.05;;;2.50;;
47856;SDS011;33618;49.972;8.242;2023-03-20T18:10:38;4.43;;;2.50;;
47856;SDS011;33618;49.972;8.242;2023-03-20T18:13:06;4.57;;;2.38;;
47856;SDS011;33618;49.972;8.242;2023-03-20T18:15:32;4.22;;;1.90;;
47856;SDS011;33618;49.972;8.242;2023-03-20T18:17:59;3.90;;;2.50;;
47856;SDS011;33618;49.972;8.242;2023-03-20T18:20:28;4.25;;;3.05;;
47856;SDS011;33618;49.972;8.242;2023-03-20T18:22:56;6.03;;;2.28;;
47856;SDS011;33618;49.972;8.242;2023-03-20T18:25:23;5.60;;;2.33;;
47856;SDS011;33618;49.972;8.242;2023-03-20T18:27:54;4.90;;;2.67;;
47856;SDS011;33618;49.972;8.242;2023-03-20T18:30:22;4.93;;;2.58;;
47856;SDS011;33618;49.972;8.242;2023-03-20T18:32:54;7.57;;;2.80;;
47856;SDS011;33618;49.972;8.242;2023-03-20T18:35:21;3.90;;;2.50;;
47856;SDS011;33618;49.972;8.242;2023-03-20T18:37:48;4.53;;;2.42;;
47856;SDS011;33618;49.972;8.242;2023-03-20T18:40:19;6.88;;;2.83;;
47856;SDS011;33618;49.972;8.242;2023-03-20T18:42:53;3.13;;;2.40;;
47856;SDS011;33618;49.972;8.242;2023-03-20T18:45:21;3.88;;;2.53;;
47856;SDS011;33618;49.972;8.242;2023-03-20T18:47:49;4.93;;;2.63;;
47856;SDS011;33618;49.972;8.242;2023-03-20T18:50:35;6.75;;;2.67;;
47856;SDS011;33618;49.972;8.242;2023-03-20T18:53:06;7.93;;;3.22;;
47856;SDS011;33618;49.972;8.242;2023-03-20T18:55:34;9.43;;;3.30;;
47856;SDS011;33618;49.972;8.242;2023-03-20T18:58:02;4.63;;;3.20;;
47856;SDS011;33618;49.972;8.242;2023-03-20T19:00:30;4.60;;;3.10;;
47856;SDS011;33618;49.972;8.242;2023-03-20T19:03:03;6.47;;;2.92;;
47856;SDS011;33618;49.972;8.242;2023-03-20T19:05:30;5.18;;;3.00;;
47856;SDS011;33618;49.972;8.242;2023-03-20T19:07:57;4.68;;;2.88;;
47856;SDS011;33618;49.972;8.242;2023-03-20T19:10:29;4.82;;;2.92;;
47856;SDS011;33618;49.972;8.242;2023-03-20T19:13:02;3.40;;;2.80;;
47856;SDS011;33618;49.972;8.242;2023-03-20T19:15:31;4.07;;;2.90;;
47856;SDS011;33618;49.972;8.242;2023-03-20T19:18:01;5.38;;;3.15;;
47856;SDS011;33618;49.972;8.242;2023-03-20T19:20:31;4.85;;;2.92;;
47856;SDS011;33618;49.972;8.242;2023-03-20T19:23:02;4.63;;;2.83;;
47856;SDS011;33618;49.972;8.242;2023-03-20T19:25:31;4.05;;;2.75;;
47856;SDS011;33618;49.972;8.242;2023-03-20T19:27:59;4.00;;;2.60;;
47856;SDS011;33618;49.972;8.242;2023-03-20T19:32:55;6.38;;;3.10;;
47856;SDS011;33618;49.972;8.242;2023-03-20T19:35:22;4.72;;;2.88;;
47856;SDS011;33618;49.972;8.242;2023-03-20T19:38:13;5.25;;;2.90;;
47856;SDS011;33618;49.972;8.242;2023-03-20T19:40:42;3.63;;;3.10;;
47856;SDS011;33618;49.972;8.242;2023-03-20T19:43:11;4.82;;;3.08;;
47856;SDS011;33618;49.972;8.242;2023-03-20T19:45:39;4.40;;;3.35;;
47856;SDS011;33618;49.972;8.242;2023-03-20T19:48:15;4.80;;;2.97;;
47856;SDS011;33618;49.972;8.242;2023-03-20T19:50:44;3.97;;;2.92;;
47856;SDS011;33618;49.972;8.242;2023-03-20T19:53:13;6.43;;;3.40;;
47856;SDS011;33618;49.972;8.242;2023-03-20T19:55:41;4.75;;;3.50;;
47856;SDS011;33618;49.972;8.242;2023-03-20T19:58:09;7.95;;;3.60;;
47856;SDS011;33618;49.972;8.242;2023-03-20T20:00:36;10.40;;;3.58;;
47856;SDS011;33618;49.972;8.242;2023-03-20T20:03:23;5.20;;;3.23;;
47856;SDS011;33618;49.972;8.242;2023-03-20T20:05:51;7.38;;;3.65;;
47856;SDS011;33618;49.972;8.242;2023-03-20T20:08:18;8.20;;;3.65;;
47856;SDS011;33618;49.972;8.242;2023-03-20T20:11:05;5.30;;;3.75;;
47856;SDS011;33618;49.972;8.242;2023-03-20T20:13:32;7.55;;;3.95;;
47856;SDS011;33618;49.972;8.242;2023-03-20T20:16:20;8.55;;;4.22;;
47856;SDS011;33618;49.972;8.242;2023-03-20T20:18:47;5.55;;;3.65;;
47856;SDS011;33618;49.972;8.242;2023-03-20T20:21:14;6.47;;;4.00;;
47856;SDS011;33618;49.972;8.242;2023-03-20T20:24:01;10.95;;;4.10;;
47856;SDS011;33618;49.972;8.242;2023-03-20T20:26:28;7.07;;;4.35;;
47856;SDS011;33618;49.972;8.242;2023-03-20T20:29:00;7.15;;;4.50;;
47856;SDS011;33618;49.972;8.242;2023-03-20T20:31:28;6.47;;;4.05;;
47856;SDS011;33618;49.972;8.242;2023-03-20T20:33:56;5.70;;;4.15;;
47856;SDS011;33618;49.972;8.242;2023-03-20T20:36:42;6.55;;;3.55;;
47856;SDS011;33618;49.972;8.242;2023-03-20T20:39:30;5.22;;;3.97;;
47856;SDS011;33618;49.972;8.242;2023-03-20T20:41:57;7.30;;;3.75;;
47856;SDS011;33618;49.972;8.242;2023-03-20T20:44:23;5.55;;;4.15;;
47856;SDS011;33618;49.972;8.242;2023-03-20T20:46:50;5.78;;;3.83;;
47856;SDS011;33618;49.972;8.242;2023-03-20T20:49:17;9.43;;;3.88;;
47856;SDS011;33618;49.972;8.242;2023-03-20T20:51:45;8.75;;;3.88;;
47856;SDS011;33618;49.972;8.242;2023-03-20T20:54:13;6.20;;;3.75;;
47856;SDS011;33618;49.972;8.242;2023-03-20T20:56:40;6.60;;;3.65;;
47856;SDS011;33618;49.972;8.242;2023-03-20T20:59:07;5.72;;;3.80;;
47856;SDS011;33618;49.972;8.242;2023-03-20T21:01:34;5.70;;;3.92;;
47856;SDS011;33618;49.972;8.242;2023-03-20T21:04:01;4.85;;;3.63;;
47856;SDS011;33618;49.972;8.242;2023-03-20T21:06:28;5.80;;;3.90;;
47856;SDS011;33618;49.972;8.242;2023-03-20T21:09:15;6.75;;;4.10;;
47856;SDS011;33618;49.972;8.242;2023-03-20T21:11:42;5.10;;;3.72;;
47856;SDS011;33618;49.972;8.242;2023-03-20T21:14:09;5.55;;;3.53;;
47856;SDS011;33618;49.972;8.242;2023-03-20T21:16:36;6.03;;;3.67;;
47856;SDS011;33618;49.972;8.242;2023-03-20T21:19:02;4.78;;;3.67;;
47856;SDS011;33618;49.972;8.242;2023-03-20T21:21:29;4.25;;;3.63;;
47856;SDS011;33618;49.972;8.242;2023-03-20T21:23:56;7.53;;;4.00;;
47856;SDS011;33618;49.972;8.242;2023-03-20T21:26:23;8.18;;;4.22;;
47856;SDS011;33618;49.972;8.242;2023-03-20T21:28:50;4.85;;;3.72;;
47856;SDS011;33618;49.972;8.242;2023-03-20T21:31:23;7.85;;;4.53;;
47856;SDS011;33618;49.972;8.242;2023-03-20T21:33:56;6.28;;;3.95;;
47856;SDS011;33618;49.972;8.242;2023-03-20T21:36:23;8.88;;;4.07;;
47856;SDS011;33618;49.972;8.242;2023-03-20T21:38:50;5.72;;;4.18;;
47856;SDS011;33618;49.972;8.242;2023-03-20T21:41:35;6.32;;;3.85;;
47856;SDS011;33618;49.972;8.242;2023-03-20T21:44:04;9.68;;;3.75;;
47856;SDS011;33618;49.972;8.242;2023-03-20T21:46:31;4.10;;;3.30;;
47856;SDS011;33618;49.972;8.242;2023-03-20T21:49:19;6.65;;;3.47;;
47856;SDS011;33618;49.972;8.242;2023-03-20T21:52:06;4.85;;;3.40;;
47856;SDS011;33618;49.972;8.242;2023-03-20T21:54:56;3.85;;;3.15;;
47856;SDS011;33618;49.972;8.242;2023-03-20T21:57:45;7.57;;;2.80;;
47856;SDS011;33618;49.972;8.242;2023-03-20T22:00:33;6.47;;;3.38;;
47856;SDS011;33618;49.972;8.242;2023-03-20T22:06:07;4.53;;;3.00;;
47856;SDS011;33618;49.972;8.242;2023-03-20T22:08:56;6.43;;;3.15;;
47856;SDS011;33618;49.972;8.242;2023-03-20T22:11:43;5.70;;;2.92;;
47856;SDS011;33618;49.972;8.242;2023-03-20T22:14:30;5.47;;;3.65;;
47856;SDS011;33618;49.972;8.242;2023-03-20T22:17:16;3.92;;;3.13;;
47856;SDS011;33618;49.972;8.242;2023-03-20T22:20:03;6.22;;;3.63;;
47856;SDS011;33618;49.972;8.242;2023-03-20T22:22:52;6.45;;;3.25;;
47856;SDS011;33618;49.972;8.242;2023-03-20T22:25:39;7.38;;;3.35;;
47856;SDS011;33618;49.972;8.242;2023-03-20T22:28:26;6.78;;;3.50;;
47856;SDS011;33618;49.972;8.242;2023-03-20T22:31:14;8.30;;;3.80;;
47856;SDS011;33618;49.972;8.242;2023-03-20T22:34:01;5.75;;;3.40;;
47856;SDS011;33618;49.972;8.242;2023-03-20T22:36:48;5.60;;;3.67;;
47856;SDS011;33618;49.972;8.242;2023-03-20T22:39:36;7.28;;;3.55;;
47856;SDS011;33618;49.972;8.242;2023-03-20T22:42:23;7.13;;;3.80;;
47856;SDS011;33618;49.972;8.242;2023-03-20T22:45:10;4.90;;;3.33;;
47856;SDS011;33618;49.972;8.242;2023-03-20T22:47:37;4.78;;;3.60;;
47856;SDS011;33618;49.972;8.242;2023-03-20T22:50:04;5.43;;;3.75;;
47856;SDS011;33618;49.972;8.242;2023-03-20T22:52:32;6.25;;;3.20;;
47856;SDS011;33618;49.972;8.242;2023-03-20T22:55:15;4.68;;;3.50;;
47856;SDS011;33618;49.972;8.242;2023-03-20T22:57:42;6.70;;;3.30;;
47856;SDS011;33618;49.972;8.242;2023-03-20T23:00:28;8.23;;;3.30;;
47856;SDS011;33618;49.972;8.242;2023-03-20T23:02:55;6.22;;;3.20;;
47856;SDS011;33618;49.972;8.242;2023-03-20T23:05:40;8.10;;;3.13;;
47856;SDS011;33618;49.972;8.242;2023-03-20T23:08:08;5.40;;;3.03;;
47856;SDS011;33618;49.972;8.242;2023-03-20T23:10:40;6.30;;;3.17;;
47856;SDS011;33618;49.972;8.242;2023-03-20T23:13:09;6.75;;;3.20;;
47856;SDS011;33618;49.972;8.242;2023-03-20T23:15:36;5.38;;;3.00;;
47856;SDS011;33618;49.972;8.242;2023-03-20T23:18:03;5.43;;;3.35;;
47856;SDS011;33618;49.972;8.242;2023-03-20T23:20:31;6.93;;;3.10;;
47856;SDS011;33618;49.972;8.242;2023-03-20T23:22:58;6.57;;;3.05;;
47856;SDS011;33618;49.972;8.242;2023-03-20T23:25:25;6.57;;;3.08;;
47856;SDS011;33618;49.972;8.242;2023-03-20T23:28:04;5.40;;;2.83;;
47856;SDS011;33618;49.972;8.242;2023-03-20T23:30:32;5.40;;;2.85;;
47856;SDS011;33618;49.972;8.242;2023-03-20T23:33:10;4.72;;;2.75;;
47856;SDS011;33618;49.972;8.242;2023-03-20T23:35:37;8.73;;;3.05;;
47856;SDS011;33618;49.972;8.242;2023-03-20T23:38:04;6.13;;;3.20;;
47856;SDS011;33618;49.972;8.242;2023-03-20T23:40:31;8.57;;;3.20;;
47856;SDS011;33618;49.972;8.242;2023-03-20T23:42:58;10.82;;;3.70;;
47856;SDS011;33618;49.972;8.242;2023-03-20T23:45:25;6.03;;;3.40;;
47856;SDS011;33618;49.972;8.242;2023-03-20T23:47:51;7.97;;;3.97;;
47856;SDS011;33618;49.972;8.242;2023-03-20T23:50:18;6.47;;;4.10;;
47856;SDS011;33618;49.972;8.242;2023-03-20T23:52:59;6.28;;;3.75;;
47856;SDS011;33618;49.972;8.242;2023-03-20T23:55:44;6.25;;;4.10;;
47856;SDS011;33618;49.972;8.242;2023-03-20T23:58:12;6.57;;;4.18;;
